Time;durP1;ratioP1;P1;durP2;ratioP2;P2;SDS_P1;SDS_P2;PMS_P1;PMS_P2;Temp;Humidity;BMP_temperature;BMP_pressure;BME280_temperature;BME280_humidity;BME280_pressure;Samples;Min_cycle;Max_cycle;Signal;HPM_P1;HPM_P2
2022/10/16 00:01:28;;;;;;;2.17;0.90;;;12.70;99.90;;;11.19;100.00;100267.69;5008872;28;20030;-79
2022/10/16 00:03:56;;;;;;;1.98;0.98;;;12.60;99.90;;;11.00;100.00;100258.69;5003471;28;20052;-79
2022/10/16 00:06:22;;;;;;;1.63;0.93;;;12.50;99.90;;;10.93;100.00;100257.94;5006423;28;20022;-79
2022/10/16 00:08:49;;;;;;;1.45;0.98;;;12.30;99.90;;;10.84;100.00;100259.31;5015927;28;20044;-78
2022/10/16 00:11:27;;;;;;;1.33;0.93;;;12.20;99.90;;;10.81;100.00;100271.53;5015400;28;20033;-78
2022/10/16 00:14:00;;;;;;;1.92;1.00;;;12.10;99.90;;;10.78;100.00;100274.72;5013758;28;20029;-79
2022/10/16 00:16:28;;;;;;;3.67;0.98;;;12.10;99.90;;;10.87;100.00;100264.31;5015145;28;20033;-79
2022/10/16 00:18:54;;;;;;;3.15;1.00;;;12.20;99.90;;;10.91;100.00;100263.63;5015598;28;20022;-79
2022/10/16 00:21:24;;;;;;;2.80;1.05;;;12.30;99.90;;;11.06;100.00;100263.22;5013081;28;20061;-79
2022/10/16 00:24:06;;;;;;;2.67;0.90;;;12.40;99.90;;;11.14;100.00;100277.63;5014243;28;20480;-79
2022/10/16 00:26:33;;;;;;;1.85;0.77;;;12.40;99.90;;;11.16;100.00;100275.53;5011680;28;20046;-79
2022/10/16 00:29:00;;;;;;;3.28;0.80;;;12.50;99.90;;;11.21;100.00;100270.19;5016489;28;20037;-79
2022/10/16 00:31:26;;;;;;;1.95;1.00;;;12.60;99.90;;;11.34;100.00;100263.72;5019938;28;20545;-80
2022/10/16 00:33:52;;;;;;;2.45;0.90;;;12.70;99.90;;;11.56;100.00;100285.88;5014616;28;20017;-80
2022/10/16 00:36:23;;;;;;;3.08;0.93;;;12.80;99.90;;;11.61;100.00;100290.66;5019776;28;20064;-80
2022/10/16 00:38:59;;;;;;;1.17;0.80;;;12.90;99.90;;;11.64;100.00;100288.28;5006428;28;20021;-81
2022/10/16 00:41:28;;;;;;;2.75;1.08;;;12.90;99.90;;;11.73;100.00;100293.44;5017585;28;20029;-80
2022/10/16 00:44:03;;;;;;;7.53;1.02;;;13.00;99.90;;;11.76;100.00;100287.50;5022269;28;20392;-80
2022/10/16 00:46:41;;;;;;;1.83;1.00;;;13.00;99.90;;;11.85;100.00;100288.00;5012609;28;20033;-80
2022/10/16 00:49:16;;;;;;;3.33;1.37;;;13.10;99.90;;;12.04;100.00;100296.97;5009666;28;20053;-80
2022/10/16 00:51:47;;;;;;;2.17;0.95;;;13.20;99.90;;;12.05;100.00;100279.50;5008888;28;20030;-79
2022/10/16 00:54:25;;;;;;;1.75;1.05;;;13.30;99.90;;;12.07;100.00;100288.31;5022244;28;20255;-80
2022/10/16 00:56:54;;;;;;;4.78;1.50;;;13.40;99.90;;;12.00;100.00;100271.97;5014116;28;20053;-79
2022/10/16 00:59:26;;;;;;;2.50;1.05;;;13.40;99.90;;;12.10;100.00;100300.69;5020887;28;20041;-81
2022/10/16 01:01:53;;;;;;;5.18;1.17;;;13.40;99.90;;;12.07;100.00;100294.63;5007300;28;20064;-82
2022/10/16 01:04:20;;;;;;;;;;;13.40;99.90;;;12.12;100.00;100304.00;5006314;28;20579;-81
2022/10/16 01:07:25;;;;;;;2.58;1.42;;;13.40;99.90;;;12.08;100.00;100287.22;5014792;28;19913;-81
2022/10/16 01:10:26;;;;;;;3.83;1.45;;;13.40;99.90;;;12.09;100.00;100299.84;5014754;28;20182;-81
2022/10/16 01:13:11;;;;;;;4.97;1.55;;;13.30;99.90;;;12.15;100.00;100287.94;5017697;28;20029;-79
2022/10/16 01:15:51;;;;;;;2.92;1.48;;;13.50;99.90;;;12.14;100.00;100299.13;5011046;28;20036;-81
2022/10/16 01:18:52;;;;;;;2.28;1.40;;;13.50;99.90;;;12.11;100.00;100297.69;5007255;28;20120;-82
2022/10/16 01:21:42;;;;;;;2.60;1.35;;;13.40;99.90;;;11.96;100.00;100291.84;5017238;28;20042;-81
2022/10/16 01:24:43;;;;;;;2.72;1.60;;;13.30;99.90;;;11.94;100.00;100292.91;5017938;28;20036;-79
2022/10/16 01:27:35;;;;;;;2.92;1.50;;;13.20;99.90;;;11.85;100.00;100297.00;5004982;28;20420;-81
2022/10/16 01:30:29;;;;;;;2.38;1.50;;;13.20;99.90;;;11.91;100.00;100303.47;5020098;28;20091;-81
2022/10/16 01:33:16;;;;;;;3.10;1.80;;;13.20;99.90;;;11.84;100.00;100297.28;5011291;28;20116;-80
2022/10/16 01:35:52;;;;;;;3.03;1.80;;;13.10;99.90;;;11.78;100.00;100302.56;5011232;28;20025;-79
2022/10/16 01:38:26;;;;;;;4.13;2.03;;;13.10;99.90;;;11.74;100.00;100309.59;5011910;28;20037;-79
2022/10/16 01:41:01;;;;;;;3.95;2.00;;;13.10;99.90;;;11.66;100.00;100304.44;5011416;28;20088;-79
2022/10/16 01:43:47;;;;;;;4.13;2.20;;;13.00;99.90;;;11.57;100.00;100311.31;5015213;28;20740;-80
2022/10/16 01:46:18;;;;;;;4.00;2.05;;;12.90;99.90;;;11.46;100.00;100327.41;5019924;28;20428;-80
2022/10/16 01:48:45;;;;;;;3.53;2.30;;;12.80;99.90;;;11.38;100.00;100314.09;5022258;28;20053;-79
2022/10/16 01:51:16;;;;;;;4.57;2.00;;;12.70;99.90;;;11.33;100.00;100331.16;5019746;28;20040;-80
2022/10/16 01:53:50;;;;;;;4.85;2.35;;;12.60;99.90;;;11.27;100.00;100337.53;5020552;28;20025;-80
2022/10/16 01:56:20;;;;;;;4.18;2.30;;;12.60;99.90;;;11.19;100.00;100340.59;5015985;28;20378;-80
2022/10/16 01:58:54;;;;;;;3.83;2.20;;;12.50;99.90;;;10.95;100.00;100329.53;5016052;28;20037;-81
2022/10/16 02:01:24;;;;;;;3.30;2.10;;;12.30;99.90;;;10.71;100.00;100337.53;5026547;28;20033;-82
2022/10/16 02:03:57;;;;;;;3.63;2.08;;;12.10;99.90;;;10.36;100.00;100324.41;5018349;28;20384;-80
2022/10/16 02:06:24;;;;;;;4.22;2.47;;;11.90;99.90;;;10.10;100.00;100326.28;5032441;28;20026;-79
2022/10/16 02:08:50;;;;;;;4.83;2.70;;;11.60;99.90;;;10.07;100.00;100327.56;5015951;28;20469;-79
2022/10/16 02:11:16;;;;;;;7.50;3.65;;;11.50;99.90;;;10.17;100.00;100326.22;5022227;28;20025;-79
2022/10/16 02:13:48;;;;;;;5.97;3.30;;;11.50;99.90;;;10.31;100.00;100332.41;5025621;28;20503;-79
2022/10/16 02:16:14;;;;;;;7.25;3.20;;;11.60;99.90;;;10.39;100.00;100334.00;5009302;28;20022;-80
2022/10/16 02:18:43;;;;;;;6.07;3.30;;;11.70;99.90;;;10.63;100.00;100348.75;5020557;28;20030;-81
2022/10/16 02:21:34;;;;;;;4.60;3.05;;;11.80;99.90;;;10.73;100.00;100340.88;5025243;28;20124;-81
2022/10/16 02:24:09;;;;;;;9.02;2.83;;;12.00;99.90;;;10.69;100.00;100334.19;5008877;28;20034;-81
2022/10/16 02:27:08;;;;;;;5.43;2.47;;;12.10;99.90;;;10.83;100.00;100329.44;5021594;28;20394;-81
2022/10/16 02:29:44;;;;;;;4.57;2.80;;;12.20;99.90;;;10.99;100.00;100348.97;5011651;28;20491;-81
2022/10/16 02:32:12;;;;;;;4.70;2.60;;;12.30;99.90;;;11.06;100.00;100358.78;5014062;28;20036;-81
2022/10/16 02:34:40;;;;;;;5.20;2.67;;;12.30;99.90;;;11.07;100.00;100362.34;5021688;28;20491;-80
2022/10/16 02:37:07;;;;;;;5.93;2.85;;;12.40;99.90;;;11.16;100.00;100368.34;5015256;28;20033;-80
2022/10/16 02:39:34;;;;;;;6.85;3.22;;;12.40;99.90;;;11.10;100.00;100350.97;5008407;28;20041;-80
2022/10/16 02:42:01;;;;;;;4.07;2.88;;;12.40;99.90;;;11.07;100.00;100354.97;5018199;28;20377;-81
2022/10/16 02:44:26;;;;;;;7.47;3.28;;;12.40;99.90;;;10.94;100.00;100342.31;5025439;28;20499;-80
2022/10/16 02:46:52;;;;;;;5.50;3.03;;;12.30;99.90;;;10.84;100.00;100335.72;5010878;28;20080;-79
2022/10/16 02:49:18;;;;;;;5.55;2.65;;;12.30;99.90;;;10.86;100.00;100352.69;5014196;28;20045;-80
2022/10/16 02:51:44;;;;;;;9.23;3.17;;;12.20;99.90;;;10.76;100.00;100343.13;5010788;28;20029;-81
2022/10/16 02:54:10;;;;;;;5.63;2.80;;;12.10;99.90;;;10.75;100.00;100349.66;5019025;28;20071;-81
2022/10/16 02:56:36;;;;;;;4.72;3.08;;;12.10;99.90;;;10.65;100.00;100343.91;5024147;28;20060;-80
2022/10/16 02:59:02;;;;;;;5.32;2.92;;;12.00;99.90;;;10.61;100.00;100343.50;5018700;28;20017;-81
2022/10/16 03:01:28;;;;;;;6.60;3.00;;;12.00;99.90;;;10.64;100.00;100347.69;5028584;28;20041;-81
2022/10/16 03:03:53;;;;;;;4.97;3.20;;;11.90;99.90;;;10.54;100.00;100347.34;5010940;28;20034;-81
2022/10/16 03:06:19;;;;;;;5.43;3.00;;;11.90;99.90;;;10.49;100.00;100343.41;5018309;28;20041;-81
2022/10/16 03:08:45;;;;;;;4.65;2.42;;;11.80;99.90;;;10.32;100.00;100336.78;5011365;28;20143;-81
2022/10/16 03:11:11;;;;;;;6.60;2.90;;;11.70;99.90;;;10.24;100.00;100345.25;5012650;28;20136;-81
2022/10/16 03:13:36;;;;;;;4.40;2.85;;;11.60;99.90;;;10.10;100.00;100331.75;5021892;28;20028;-81
2022/10/16 03:16:02;;;;;;;6.00;2.72;;;11.60;99.90;;;10.03;100.00;100334.50;5006192;28;20054;-81
2022/10/16 03:18:28;;;;;;;5.07;3.00;;;11.40;99.90;;;9.98;100.00;100350.69;5015291;28;20029;-81
2022/10/16 03:20:54;;;;;;;5.22;2.65;;;11.40;99.90;;;9.87;100.00;100341.34;5013746;28;20025;-81
2022/10/16 03:23:20;;;;;;;4.30;3.00;;;11.30;99.90;;;9.90;100.00;100359.97;5021299;28;20029;-80
2022/10/16 03:25:46;;;;;;;5.03;3.28;;;11.30;99.90;;;9.85;100.00;100346.19;5013294;28;20042;-81
2022/10/16 03:28:12;;;;;;;5.90;3.00;;;11.30;99.90;;;9.79;100.00;100347.03;5020331;28;20034;-81
2022/10/16 03:30:39;;;;;;;6.68;3.17;;;11.20;99.90;;;9.81;100.00;100355.81;5025209;28;20029;-80
2022/10/16 03:33:05;;;;;;;5.43;3.50;;;11.20;99.90;;;9.77;100.00;100338.25;5013332;28;20179;-81
2022/10/16 03:35:32;;;;;;;6.03;3.50;;;11.20;99.90;;;9.86;100.00;100336.94;5005271;28;20034;-82
2022/10/16 03:37:58;;;;;;;5.95;3.60;;;11.20;99.90;;;9.89;100.00;100331.06;5016708;28;20165;-81
2022/10/16 03:40:24;;;;;;;8.00;3.83;;;11.30;99.90;;;9.98;100.00;100347.13;5012052;28;20069;-79
2022/10/16 03:42:50;;;;;;;9.07;4.72;;;11.30;99.90;;;9.97;100.00;100338.13;5013333;28;20040;-81
2022/10/16 03:45:16;;;;;;;6.30;3.88;;;11.30;99.90;;;9.92;100.00;100338.78;5023823;28;20041;-81
2022/10/16 03:47:42;;;;;;;7.38;4.53;;;11.30;99.90;;;9.81;100.00;100330.47;5013782;28;20034;-82
2022/10/16 03:50:08;;;;;;;7.28;4.80;;;11.20;99.90;;;9.75;100.00;100322.13;5015043;28;20091;-81
2022/10/16 03:52:34;;;;;;;9.45;4.60;;;11.30;99.90;;;9.84;100.00;100339.06;5019543;28;20033;-82
2022/10/16 03:55:00;;;;;;;6.75;3.95;;;11.20;99.90;;;9.88;100.00;100340.28;5018433;28;20593;-82
2022/10/16 03:57:26;;;;;;;7.25;4.43;;;11.20;99.90;;;9.78;100.00;100329.88;5017796;28;20080;-80
2022/10/16 03:59:51;;;;;;;10.43;4.70;;;11.20;99.90;;;9.88;100.00;100345.72;5014059;28;20034;-82
2022/10/16 04:02:17;;;;;;;8.20;5.07;;;11.20;99.90;;;9.82;100.00;100340.31;5022130;28;20037;-82
2022/10/16 04:04:43;;;;;;;7.97;4.60;;;11.20;99.90;;;9.83;100.00;100347.44;5017774;28;20439;-82
2022/10/16 04:07:09;;;;;;;9.73;5.20;;;11.20;99.90;;;9.77;100.00;100347.25;5018530;28;20038;-81
2022/10/16 04:09:35;;;;;;;7.03;4.68;;;11.10;99.90;;;9.75;100.00;100346.66;5022334;28;20065;-81
2022/10/16 04:12:00;;;;;;;7.68;5.20;;;11.10;99.90;;;9.75;100.00;100334.91;5012693;28;20057;-82
2022/10/16 04:14:26;;;;;;;7.15;4.45;;;11.20;99.90;;;9.82;100.00;100346.63;5008109;28;20034;-81
2022/10/16 04:16:52;;;;;;;7.50;4.70;;;11.20;99.90;;;9.76;100.00;100336.56;5017794;28;20037;-81
2022/10/16 04:19:17;;;;;;;11.13;4.45;;;11.20;99.90;;;9.86;100.00;100366.91;5008571;28;20033;-81
2022/10/16 04:21:44;;;;;;;7.85;4.38;;;11.20;99.90;;;9.70;100.00;100354.66;5010028;28;20543;-81
2022/10/16 04:24:11;;;;;;;7.50;4.53;;;11.20;99.90;;;9.82;100.00;100368.41;5018452;28;20059;-82
2022/10/16 04:26:37;;;;;;;9.05;4.50;;;11.20;99.90;;;9.86;100.00;100376.97;5015902;28;20045;-81
2022/10/16 04:29:03;;;;;;;9.23;4.50;;;11.20;99.90;;;9.78;100.00;100368.00;5016889;28;20057;-82
2022/10/16 04:31:29;;;;;;;7.22;4.72;;;11.20;99.90;;;9.82;100.00;100365.69;5003395;28;20599;-81
2022/10/16 04:33:55;;;;;;;7.85;3.97;;;11.20;99.90;;;9.84;100.00;100373.63;5011864;28;20034;-82
2022/10/16 04:36:20;;;;;;;6.40;4.25;;;11.20;99.90;;;9.85;100.00;100370.69;5007103;28;20052;-83
2022/10/16 04:38:47;;;;;;;8.65;4.90;;;11.20;99.90;;;9.81;100.00;100366.72;5012481;28;20033;-81
2022/10/16 04:41:13;;;;;;;8.52;4.00;;;11.20;99.90;;;9.79;100.00;100371.53;5022680;28;20461;-82
2022/10/16 04:43:39;;;;;;;6.35;4.05;;;11.20;99.90;;;9.81;100.00;100391.22;5020891;28;20033;-82
2022/10/16 04:46:04;;;;;;;7.18;4.07;;;11.20;99.90;;;9.79;100.00;100369.66;5016865;28;20543;-81
2022/10/16 04:48:31;;;;;;;6.72;4.25;;;11.20;99.90;;;9.78;100.00;100364.44;5001743;28;20029;-80
2022/10/16 04:50:57;;;;;;;8.70;4.78;;;11.20;99.90;;;9.71;100.00;100364.50;5011538;28;20559;-80
2022/10/16 04:53:23;;;;;;;6.65;3.78;;;11.10;99.90;;;9.65;100.00;100362.63;5016154;28;20041;-80
2022/10/16 04:55:50;;;;;;;7.05;4.50;;;11.10;99.90;;;9.70;100.00;100379.16;5011529;28;20018;-81
2022/10/16 04:58:16;;;;;;;9.70;5.15;;;11.10;99.90;;;9.67;100.00;100365.94;5022044;28;20131;-80
2022/10/16 05:00:43;;;;;;;7.93;4.70;;;11.10;99.90;;;9.68;100.00;100374.97;5010161;28;20048;-80
2022/10/16 05:03:09;;;;;;;7.20;4.50;;;11.10;99.90;;;9.67;100.00;100381.47;5009145;28;20034;-81
2022/10/16 05:05:36;;;;;;;11.13;5.80;;;11.10;99.90;;;9.69;100.00;100379.38;5001665;28;20079;-81
2022/10/16 05:08:02;;;;;;;11.60;5.47;;;11.10;99.90;;;9.86;100.00;100385.13;5008199;28;20040;-81
2022/10/16 05:10:28;;;;;;;11.38;6.00;;;11.20;99.90;;;10.00;100.00;100380.44;5018172;28;20036;-81
2022/10/16 05:12:54;;;;;;;12.02;6.45;;;11.30;99.90;;;10.11;100.00;100393.38;5018256;28;20025;-80
2022/10/16 05:15:20;;;;;;;12.45;6.75;;;11.50;99.90;;;10.30;100.00;100401.63;5010907;28;20034;-82
2022/10/16 05:17:45;;;;;;;10.23;6.78;;;11.60;99.90;;;10.40;100.00;100396.56;5014893;28;20130;-81
2022/10/16 05:20:12;;;;;;;9.95;6.60;;;11.70;99.90;;;10.56;100.00;100397.03;5024587;28;20063;-81
2022/10/16 05:22:38;;;;;;;11.32;6.32;;;11.80;99.90;;;10.58;100.00;100395.78;5014165;28;20080;-82
2022/10/16 05:25:05;;;;;;;9.77;6.32;;;11.90;99.90;;;10.69;100.00;100401.56;5023655;28;20570;-82
2022/10/16 05:27:31;;;;;;;7.38;5.20;;;12.00;99.90;;;10.66;100.00;100397.41;5010636;28;20145;-81
2022/10/16 05:29:56;;;;;;;10.35;5.15;;;12.00;99.90;;;10.54;100.00;100374.63;5010000;28;20396;-81
2022/10/16 05:32:22;;;;;;;11.57;5.18;;;12.00;99.90;;;10.65;100.00;100410.19;5023097;28;20045;-83
2022/10/16 05:34:48;;;;;;;7.53;4.75;;;12.00;99.90;;;10.61;100.00;100403.50;5017672;28;20029;-81
2022/10/16 05:37:14;;;;;;;8.38;4.70;;;12.00;99.90;;;10.85;100.00;100419.25;5011594;28;20037;-82
2022/10/16 05:39:40;;;;;;;6.53;4.65;;;12.10;99.90;;;10.81;100.00;100420.75;5014458;28;20026;-82
2022/10/16 05:42:06;;;;;;;10.30;4.72;;;12.10;99.90;;;10.88;100.00;100429.75;5012771;28;20049;-82
2022/10/16 05:44:32;;;;;;;10.23;4.75;;;12.20;99.90;;;10.89;100.00;100425.94;5023346;28;20045;-84
2022/10/16 05:46:58;;;;;;;7.90;4.13;;;12.20;99.90;;;10.97;100.00;100428.38;5025653;28;20049;-82
2022/10/16 05:49:23;;;;;;;8.38;4.25;;;12.20;99.90;;;11.06;100.00;100431.66;5023115;28;20112;-82
2022/10/16 05:51:49;;;;;;;6.03;4.00;;;12.30;99.90;;;11.14;100.00;100419.59;5010664;28;20029;-81
2022/10/16 05:54:15;;;;;;;6.18;3.60;;;12.40;99.90;;;11.15;100.00;100427.56;5016955;28;20065;-82
2022/10/16 05:56:41;;;;;;;7.25;4.03;;;12.40;99.90;;;11.23;100.00;100426.44;5019666;28;20075;-83
2022/10/16 05:59:06;;;;;;;4.95;3.13;;;12.50;99.90;;;11.34;100.00;100427.59;5028049;28;20030;-83
2022/10/16 06:01:33;;;;;;;6.53;3.53;;;12.60;99.90;;;11.34;100.00;100431.13;5017563;28;20025;-80
2022/10/16 06:03:58;;;;;;;4.70;3.10;;;12.60;99.90;;;11.36;100.00;100430.91;5018979;28;20378;-79
2022/10/16 06:06:28;;;;;;;4.88;3.00;;;12.70;99.90;;;11.45;100.00;100450.59;5018415;28;20033;-76
2022/10/16 06:08:55;;;;;;;5.25;3.00;;;12.70;99.90;;;11.42;100.00;100442.84;5021486;28;20230;-79
2022/10/16 06:11:25;;;;;;;5.78;2.60;;;12.70;99.90;;;11.45;100.00;100445.13;5025134;28;20042;-80
2022/10/16 06:13:53;;;;;;;5.18;2.40;;;12.70;99.90;;;11.39;100.00;100433.19;5013987;28;20030;-80
2022/10/16 06:16:19;;;;;;;5.15;2.35;;;12.70;99.90;;;11.53;100.00;100455.72;5021735;28;20025;-81
2022/10/16 06:18:46;;;;;;;5.25;2.40;;;12.80;99.90;;;11.63;100.00;100447.81;5020225;28;20037;-82
2022/10/16 06:21:19;;;;;;;7.45;2.60;;;12.80;99.90;;;11.66;100.00;100441.91;5008841;28;20112;-79
2022/10/16 06:23:46;;;;;;;3.58;2.33;;;12.90;99.90;;;11.69;100.00;100439.78;5009241;28;20454;-81
2022/10/16 06:26:16;;;;;;;4.32;2.30;;;12.90;99.90;;;11.65;100.00;100458.53;5019417;28;20288;-79
2022/10/16 06:28:42;;;;;;;5.50;2.40;;;12.90;99.90;;;11.64;100.00;100459.59;5015482;28;20061;-79
2022/10/16 06:31:10;;;;;;;3.55;2.33;;;13.00;99.90;;;11.61;100.00;100455.41;5013185;28;20092;-79
2022/10/16 06:33:37;;;;;;;5.35;2.35;;;13.00;99.90;;;11.71;100.00;100479.47;5012545;28;20113;-78
2022/10/16 06:36:12;;;;;;;5.20;2.40;;;13.00;99.90;;;11.77;100.00;100486.75;5013760;28;20396;-77
2022/10/16 06:38:38;;;;;;;6.10;2.60;;;13.00;99.90;;;11.78;100.00;100480.22;5014136;28;20038;-77
2022/10/16 06:41:06;;;;;;;5.65;2.60;;;13.00;99.90;;;11.83;100.00;100485.00;5005501;28;20037;-79
2022/10/16 06:43:35;;;;;;;5.38;2.70;;;13.10;99.90;;;11.87;100.00;100472.56;5004837;28;20121;-77
2022/10/16 06:46:03;;;;;;;4.28;3.00;;;13.20;99.90;;;12.09;100.00;100488.50;5009266;28;20045;-77
2022/10/16 06:48:29;;;;;;;5.95;2.75;;;13.30;99.90;;;12.20;100.00;100484.16;5008523;28;20107;-77
2022/10/16 06:51:06;;;;;;;4.72;2.70;;;13.40;99.90;;;12.29;100.00;100490.13;5010294;28;20159;-77
2022/10/16 06:53:35;;;;;;;4.82;2.90;;;13.60;99.90;;;12.39;100.00;100484.94;5015662;28;20412;-79
2022/10/16 06:56:15;;;;;;;4.20;2.88;;;13.70;99.90;;;12.52;100.00;100489.38;5019057;28;20026;-77
2022/10/16 06:58:43;;;;;;;4.60;3.25;;;13.70;99.90;;;12.61;100.00;100498.94;5016393;28;20025;-77
2022/10/16 07:01:10;;;;;;;4.40;2.80;;;13.90;99.90;;;12.80;100.00;100504.31;5012979;28;20049;-76
2022/10/16 07:03:39;;;;;;;5.00;2.53;;;14.00;99.90;;;12.97;100.00;100496.22;5012870;28;20037;-78
2022/10/16 07:06:08;;;;;;;8.77;2.67;;;14.20;99.90;;;13.08;100.00;100489.94;5017893;28;20029;-78
2022/10/16 07:08:36;;;;;;;4.30;2.50;;;14.30;99.90;;;13.19;100.00;100501.13;5019010;28;20041;-78
2022/10/16 07:11:04;;;;;;;;;;;14.40;99.90;;;13.18;100.00;100486.63;5020535;28;21618;-76
2022/10/16 07:13:33;;;;;;;5.78;2.55;;;14.50;99.90;;;13.28;100.00;100499.72;5008213;28;19917;-76
2022/10/16 07:16:12;;;;;;;4.80;3.05;;;14.50;99.90;;;13.40;100.00;100504.34;5009889;28;20065;-75
2022/10/16 07:18:40;;;;;;;3.92;2.63;;;14.60;99.90;;;13.52;100.00;100507.94;5012522;28;20105;-77
2022/10/16 07:21:20;;;;;;;6.82;2.92;;;14.70;99.90;;;13.60;100.00;100525.91;5008321;28;20143;-76
2022/10/16 07:23:51;;;;;;;6.25;3.05;;;14.80;99.90;;;13.64;100.00;100522.47;5017816;28;20065;-77
2022/10/16 07:26:17;;;;;;;5.47;2.80;;;14.90;99.90;;;13.69;100.00;100516.28;5009985;28;20053;-78
2022/10/16 07:28:44;;;;;;;4.97;2.83;;;14.90;99.90;;;13.71;100.00;100527.81;5006506;28;20030;-77
2022/10/16 07:31:13;;;;;;;4.38;2.70;;;15.00;99.90;;;13.70;100.00;100533.53;5006803;28;20039;-77
2022/10/16 07:33:41;;;;;;;3.33;2.47;;;15.00;99.90;;;13.69;100.00;100529.97;5002817;28;20030;-75
2022/10/16 07:36:07;;;;;;;3.78;2.50;;;15.00;99.90;;;13.64;100.00;100541.66;5007163;28;20030;-75
2022/10/16 07:38:33;;;;;;;4.28;2.50;;;14.90;99.90;;;13.65;100.00;100537.00;5009522;28;20096;-75
2022/10/16 07:41:05;;;;;;;4.43;2.58;;;14.90;99.90;;;13.52;100.00;100536.19;5004085;28;20030;-76
2022/10/16 07:43:32;;;;;;;4.40;2.38;;;14.80;99.90;;;13.61;100.00;100544.88;5010117;28;20119;-76
2022/10/16 07:45:58;;;;;;;4.85;2.50;;;14.90;99.90;;;13.83;100.00;100544.25;5008413;28;20038;-76
2022/10/16 07:48:28;;;;;;;4.88;2.30;;;15.00;99.90;;;14.10;100.00;100550.03;5008620;28;20033;-75
2022/10/16 07:51:02;;;;;;;4.28;2.65;;;15.20;99.90;;;14.23;100.00;100554.41;5009912;28;20026;-76
2022/10/16 07:53:28;;;;;;;4.15;2.20;;;15.40;99.90;;;14.23;100.00;100561.81;5012282;28;20030;-76
2022/10/16 07:56:04;;;;;;;6.65;2.88;;;15.50;99.90;;;14.21;100.00;100566.72;5007067;28;20028;-75
2022/10/16 07:58:30;;;;;;;3.33;2.42;;;15.50;99.90;;;14.15;100.00;100551.19;5002192;28;20586;-77
2022/10/16 08:00:57;;;;;;;4.55;2.58;;;15.40;99.90;;;14.09;100.00;100567.56;5002807;28;20048;-76
2022/10/16 08:03:23;;;;;;;3.92;1.90;;;15.40;99.90;;;14.17;100.00;100571.84;5004818;28;20030;-75
2022/10/16 08:05:50;;;;;;;3.50;2.05;;;15.40;99.90;;;14.30;100.00;100569.88;5009308;28;20037;-78
2022/10/16 08:08:17;;;;;;;3.70;2.03;;;15.50;99.90;;;14.50;100.00;100575.78;5005122;28;20037;-77
2022/10/16 08:10:44;;;;;;;;;;;15.70;99.90;;;14.78;100.00;100593.34;5004751;28;20026;-77
2022/10/16 08:13:10;;;;;;;3.15;1.60;;;15.90;99.90;;;14.90;99.05;100590.53;5002221;28;19921;-77
2022/10/16 08:15:36;;;;;;;2.83;1.40;;;16.10;99.90;;;15.09;97.71;100593.06;5001576;28;20029;-76
2022/10/16 08:18:04;;;;;;;1.95;1.40;;;16.30;99.90;;;15.27;94.83;100594.75;5005626;28;20056;-77
2022/10/16 08:20:32;;;;;;;2.15;1.20;;;16.40;99.90;;;15.54;94.06;100599.56;5004156;28;20034;-74
2022/10/16 08:23:00;;;;;;;1.77;1.05;;;16.70;99.90;;;15.67;91.25;100609.38;5000427;28;20041;-78
2022/10/16 08:25:29;;;;;;;2.88;1.58;;;16.90;99.90;;;15.75;89.12;100597.13;5005144;28;20029;-76
2022/10/16 08:27:55;;;;;;;1.70;1.10;;;17.00;99.90;;;15.95;88.07;100602.09;5014720;28;20033;-76
2022/10/16 08:30:23;;;;;;;1.67;0.90;;;17.10;99.90;;;15.87;87.95;100606.09;5012072;28;20033;-75
2022/10/16 08:32:49;;;;;;;1.23;0.90;;;17.10;99.90;;;15.81;86.64;100602.47;5007665;28;20357;-75
2022/10/16 08:35:16;;;;;;;2.53;0.95;;;17.10;99.90;;;15.79;86.53;100612.03;5004300;28;20034;-75
2022/10/16 08:37:43;;;;;;;1.80;1.00;;;17.00;99.90;;;15.74;87.11;100603.72;5002470;28;20041;-74
2022/10/16 08:40:23;;;;;;;0.97;0.80;;;17.00;99.90;;;15.71;87.37;100607.78;5000162;28;20441;-79
2022/10/16 08:43:10;;;;;;;1.75;0.90;;;17.00;99.90;;;15.80;86.41;100611.78;5009311;28;20137;-82
2022/10/16 08:45:42;;;;;;;3.28;0.77;;;17.00;99.90;;;15.73;85.72;100619.38;5019660;28;20267;-78
2022/10/16 08:48:40;;;;;;;3.00;1.00;;;17.00;99.90;;;15.72;87.75;100603.13;5012855;28;20034;-77
2022/10/16 08:51:18;;;;;;;1.88;0.80;;;17.00;99.90;;;15.95;84.79;100616.72;5006109;28;20521;-79
2022/10/16 08:53:57;;;;;;;1.23;0.70;;;17.20;99.90;;;15.86;83.89;100626.44;5002418;28;20501;-78
2022/10/16 08:56:24;;;;;;;2.15;0.90;;;17.10;99.90;;;15.71;85.34;100639.97;5014284;28;20044;-78
2022/10/16 08:58:51;;;;;;;1.75;0.70;;;17.00;99.90;;;15.65;86.50;100631.66;5013916;28;20472;-78
2022/10/16 09:01:22;;;;;;;1.63;0.70;;;16.90;99.90;;;15.81;84.41;100623.59;5020062;28;20048;-76
2022/10/16 09:04:29;;;;;;;1.67;0.80;;;17.00;99.90;;;16.06;85.23;100647.94;5007441;28;20036;-79
2022/10/16 09:07:08;;;;;;;1.85;0.90;;;17.20;99.90;;;16.30;80.88;100650.44;5008666;28;20040;-76
2022/10/16 09:10:20;;;;;;;1.77;0.80;;;17.50;99.90;;;16.50;79.50;100654.56;5008780;28;20044;-79
2022/10/16 09:13:12;;;;;;;2.58;0.70;;;17.70;99.90;;;16.68;79.80;100662.50;5016090;28;20038;-78
2022/10/16 09:16:20;;;;;;;2.42;0.85;;;17.80;99.90;;;16.64;77.68;100652.25;5016314;28;20061;-76
2022/10/16 09:19:04;;;;;;;1.50;0.77;;;17.90;99.90;;;16.64;77.91;100658.59;5014735;28;20111;-78
2022/10/16 09:21:43;;;;;;;1.25;0.80;;;17.90;99.90;;;16.68;76.88;100650.63;5005461;28;20525;-78
2022/10/16 09:24:23;;;;;;;3.15;0.70;;;18.00;99.90;;;16.74;76.58;100674.41;5008475;28;20105;-76
2022/10/16 09:26:50;;;;;;;1.63;0.70;;;18.00;99.90;;;16.95;76.26;100675.47;5022683;28;20041;-77
2022/10/16 09:29:24;;;;;;;5.00;1.08;;;18.10;99.90;;;17.44;71.75;100672.91;5004056;28;20068;-76
2022/10/16 09:31:52;;;;;;;2.53;1.02;;;18.30;99.90;;;17.62;71.27;100683.56;5006174;28;20053;-77
2022/10/16 09:34:36;;;;;;;1.73;0.60;;;18.70;99.90;;;17.67;69.41;100678.09;5007860;28;20038;-78
2022/10/16 09:37:14;;;;;;;2.00;0.70;;;19.10;99.90;;;17.91;71.60;100687.94;5008690;28;20034;-79
2022/10/16 09:39:50;;;;;;;1.60;0.80;;;19.80;99.90;;;18.10;68.02;100691.09;5008554;28;20501;-76
2022/10/16 09:42:46;;;;;;;2.75;1.10;;;20.50;99.90;;;17.90;68.80;100698.13;5007828;28;20393;-77
2022/10/16 09:45:23;;;;;;;1.42;0.70;;;20.20;99.90;;;18.28;66.48;100698.13;5021712;28;20048;-77
2022/10/16 09:47:50;;;;;;;2.30;0.73;;;20.70;99.90;;;18.65;64.56;100685.31;5014567;28;20033;-76
2022/10/16 09:50:27;;;;;;;2.53;0.70;;;21.00;99.70;;;19.37;61.74;100685.53;5021755;28;20041;-83
2022/10/16 09:53:11;;;;;;;1.05;0.55;;;21.60;97.60;;;20.68;56.47;100725.75;5012307;28;20141;-78
2022/10/16 09:55:52;;;;;;;2.33;0.80;;;22.30;95.10;;;21.86;54.09;100711.44;5021220;28;20025;-82
2022/10/16 09:58:22;;;;;;;2.08;0.55;;;22.60;94.40;;;21.91;53.17;100719.75;5015927;28;20041;-80
2022/10/16 10:00:53;;;;;;;1.52;0.65;;;;;;;22.43;50.82;100728.38;5013511;28;20044;-77
2022/10/16 10:03:47;;;;;;;1.98;0.68;;;;;;;23.60;47.96;100733.81;5020768;28;20121;-80
2022/10/16 10:06:21;;;;;;;1.73;0.77;;;;;;;24.39;45.87;100743.31;5016380;28;20054;-78
2022/10/16 10:09:15;;;;;;;3.50;0.70;;;;;;;25.43;44.29;100734.41;5006460;28;20030;-76
2022/10/16 10:11:44;;;;;;;1.73;0.68;;;;;;;24.50;44.76;100742.00;5008263;28;20073;-74
2022/10/16 10:14:22;;;;;;;1.38;0.47;;;;;;;25.03;43.14;100750.13;5018283;28;20046;-75
2022/10/16 10:16:49;;;;;;;;;;;;;;;25.28;43.43;100746.78;5014969;28;20030;-74
2022/10/16 10:19:18;;;;;;;0.82;0.40;;;;;;;25.84;42.15;100748.56;5004065;28;19913;-75
2022/10/16 10:21:46;;;;;;;1.20;0.47;;;;;;;26.53;39.52;100744.53;5004266;28;20115;-75
2022/10/16 10:24:14;;;;;;;4.18;0.50;;;;;;;25.51;41.26;100740.44;5007064;28;20152;-75
2022/10/16 10:27:00;;;;;;;1.83;0.47;;;;;;;24.87;41.95;100749.66;5012652;28;20080;-74
2022/10/16 10:29:46;;;;;;;3.53;0.80;;;;;;;25.22;40.66;100763.97;5007771;28;20048;-77